Time;durP1;ratioP1;P1;durP2;ratioP2;P2;SDS_P1;SDS_P2;PMS_P1;PMS_P2;Temp;Humidity;BMP_temperature;BMP_pressure;BME280_temperature;BME280_humidity;BME280_pressure;Samples;Min_cycle;Max_cycle;Signal;HPM_P1;HPM_P2
2022/09/27 00:02:21;;;;;;;6.88;0.30;;;10.10;99.90;;;;;;4967032;28;20063;-76
2022/09/27 00:04:47;;;;;;;4.25;0.30;;;10.10;99.90;;;;;;4966494;28;20113;-75
2022/09/27 00:07:12;;;;;;;12.45;0.40;;;10.10;99.90;;;;;;4966999;28;20037;-75
2022/09/27 00:09:38;;;;;;;7.13;0.70;;;10.10;99.90;;;;;;4967280;28;20053;-75
2022/09/27 00:12:04;;;;;;;3.42;0.35;;;10.10;99.90;;;;;;4964950;28;20390;-74
2022/09/27 00:14:29;;;;;;;4.50;0.40;;;10.10;99.90;;;;;;4968208;28;20034;-75
2022/09/27 00:16:55;;;;;;;4.00;0.20;;;10.10;99.90;;;;;;4966492;28;20035;-75
2022/09/27 00:19:22;;;;;;;3.78;0.82;;;10.00;99.90;;;;;;4963328;28;20049;-75
2022/09/27 00:21:49;;;;;;;5.82;0.30;;;10.00;99.90;;;;;;4967421;28;20410;-75
2022/09/27 00:24:17;;;;;;;3.78;0.30;;;10.00;99.90;;;;;;4966835;28;20551;-75
2022/09/27 00:26:43;;;;;;;3.78;0.38;;;9.90;99.90;;;;;;4966879;28;20022;-75
2022/09/27 00:29:09;;;;;;;5.57;0.30;;;9.90;99.90;;;;;;4966942;28;20038;-76
2022/09/27 00:31:36;;;;;;;4.90;1.20;;;9.90;99.90;;;;;;4980517;28;20026;-75
2022/09/27 00:34:04;;;;;;;5.78;0.40;;;9.90;99.90;;;;;;4966895;28;20402;-75
2022/09/27 00:36:31;;;;;;;6.18;0.45;;;9.90;99.90;;;;;;4965652;28;20030;-75
2022/09/27 00:39:00;;;;;;;4.43;0.38;;;9.80;99.90;;;;;;4965495;28;20388;-75
2022/09/27 00:41:32;;;;;;;6.65;0.40;;;9.90;99.90;;;;;;4967614;28;20387;-75
2022/09/27 00:44:04;;;;;;;7.00;0.30;;;9.80;99.90;;;;;;4966564;28;20053;-75
2022/09/27 00:46:37;;;;;;;4.20;0.28;;;9.80;99.90;;;;;;4966210;28;20376;-75
2022/09/27 00:49:28;;;;;;;7.05;0.40;;;9.80;99.90;;;;;;4964882;28;20030;-75
2022/09/27 00:52:00;;;;;;;5.15;0.30;;;9.80;99.90;;;;;;4965546;28;20113;-75
2022/09/27 00:54:27;;;;;;;4.40;0.38;;;9.90;99.90;;;;;;4967338;28;20050;-76
2022/09/27 00:56:54;;;;;;;7.57;0.40;;;9.90;99.90;;;;;;4966500;28;20398;-74
2022/09/27 00:59:25;;;;;;;5.03;0.20;;;9.80;99.90;;;;;;4966987;28;20482;-75
2022/09/27 01:01:50;;;;;;;8.13;0.30;;;9.90;99.90;;;;;;4980134;28;20077;-75
2022/09/27 01:04:22;;;;;;;6.65;0.30;;;9.90;99.90;;;;;;4965823;28;20062;-75
2022/09/27 01:06:48;;;;;;;3.47;0.50;;;9.90;99.90;;;;;;4966306;28;20113;-76
2022/09/27 01:09:13;;;;;;;3.65;0.20;;;9.90;99.90;;;;;;4965663;28;20475;-75
2022/09/27 01:12:08;;;;;;;2.88;0.20;;;9.90;99.90;;;;;;4964939;28;20082;-74
2022/09/27 01:15:02;;;;;;;7.88;0.40;;;9.90;99.90;;;;;;4981473;28;20038;-74
2022/09/27 01:17:33;;;;;;;4.30;0.30;;;9.90;99.90;;;;;;4967544;28;20499;-75
2022/09/27 01:20:23;;;;;;;5.15;0.30;;;9.90;99.90;;;;;;4967904;28;20687;-75
2022/09/27 01:23:07;;;;;;;5.32;0.22;;;9.90;99.90;;;;;;4969563;28;20038;-74
2022/09/27 01:25:52;;;;;;;3.85;0.30;;;9.80;99.90;;;;;;4980248;28;20046;-74
2022/09/27 01:28:43;;;;;;;11.68;0.30;;;9.80;99.90;;;;;;4970422;28;20037;-74
2022/09/27 01:31:21;;;;;;;4.25;0.43;;;9.80;99.90;;;;;;4971096;28;20046;-74
2022/09/27 01:34:18;;;;;;;5.70;0.20;;;9.80;99.90;;;;;;4968871;28;20022;-74
2022/09/27 01:37:21;;;;;;;3.78;0.20;;;9.80;99.90;;;;;;4970643;28;20031;-74
2022/09/27 01:40:06;;;;;;;2.50;0.30;;;9.80;99.90;;;;;;4962181;28;20041;-74
2022/09/27 01:42:56;;;;;;;6.63;0.30;;;9.80;99.90;;;;;;4983108;28;20031;-74
2022/09/27 01:45:44;;;;;;;3.13;0.30;;;9.70;99.90;;;;;;4968931;28;20027;-74
2022/09/27 01:48:15;;;;;;;4.07;0.40;;;9.80;99.90;;;;;;4971026;28;20547;-74
2022/09/27 01:50:46;;;;;;;4.00;0.30;;;9.70;99.90;;;;;;4966532;28;20118;-74
2022/09/27 01:53:34;;;;;;;5.13;0.40;;;9.70;99.90;;;;;;4973834;28;20033;-74
2022/09/27 01:56:05;;;;;;;2.55;0.20;;;9.70;99.90;;;;;;4972523;28;20043;-74
2022/09/27 01:58:45;;;;;;;3.60;0.38;;;9.70;99.90;;;;;;4974790;28;20046;-74
2022/09/27 02:01:13;;;;;;;5.25;0.30;;;9.60;99.90;;;;;;4978453;28;20097;-74
2022/09/27 02:03:45;;;;;;;4.60;0.30;;;9.70;99.90;;;;;;4979271;28;20026;-74
2022/09/27 02:06:15;;;;;;;3.35;0.20;;;9.60;99.90;;;;;;4977475;28;20030;-74
2022/09/27 02:08:50;;;;;;;4.93;0.20;;;9.60;99.90;;;;;;4972192;28;20033;-75
2022/09/27 02:11:16;;;;;;;3.72;0.43;;;9.60;99.90;;;;;;4978394;28;20015;-74
2022/09/27 02:14:01;;;;;;;7.80;0.20;;;9.60;99.90;;;;;;4969724;28;20081;-74
2022/09/27 02:16:42;;;;;;;2.70;0.30;;;9.60;99.90;;;;;;4972782;28;20022;-75
2022/09/27 02:19:23;;;;;;;4.07;0.30;;;9.70;99.90;;;;;;4966725;28;20557;-75
2022/09/27 02:22:08;;;;;;;2.08;0.25;;;9.70;99.90;;;;;;4972045;28;20050;-75
2022/09/27 02:24:46;;;;;;;2.47;0.15;;;9.70;99.90;;;;;;4956436;28;20023;-75
2022/09/27 02:27:33;;;;;;;1.70;0.20;;;9.60;99.90;;;;;;4970576;28;20039;-75
2022/09/27 02:30:10;;;;;;;4.03;0.20;;;9.60;99.90;;;;;;4987660;28;20027;-75
2022/09/27 02:32:36;;;;;;;5.35;0.20;;;9.50;99.90;;;;;;4972047;28;20026;-75
2022/09/27 02:35:15;;;;;;;3.53;0.20;;;9.50;99.90;;;;;;4972309;28;20034;-75
2022/09/27 02:37:41;;;;;;;5.15;0.35;;;9.50;99.90;;;;;;4971252;28;20034;-75
2022/09/27 02:40:07;;;;;;;8.75;0.60;;;9.40;99.90;;;;;;4972056;28;20392;-74
2022/09/27 02:42:33;;;;;;;3.13;0.20;;;9.40;99.90;;;;;;4972541;28;20102;-74
2022/09/27 02:45:00;;;;;;;6.38;1.30;;;9.20;99.90;;;;;;4971379;28;20034;-75
2022/09/27 02:47:31;;;;;;;3.85;0.38;;;9.20;99.90;;;;;;4972011;28;20019;-75
2022/09/27 02:50:12;;;;;;;4.78;0.40;;;9.20;99.90;;;;;;4969927;28;20031;-75
2022/09/27 02:53:07;;;;;;;3.85;0.30;;;9.10;99.90;;;;;;4965205;28;20031;-75
2022/09/27 02:56:00;;;;;;;5.57;0.40;;;9.10;99.90;;;;;;4965987;28;20142;-75
2022/09/27 02:58:36;;;;;;;;;;;9.10;99.90;;;;;;4968155;28;20038;-75
2022/09/27 03:01:12;;;;;;;5.75;0.40;;;9.00;99.90;;;;;;4967763;28;19914;-75
2022/09/27 03:04:03;;;;;;;6.82;0.40;;;9.00;99.90;;;;;;4967076;28;20074;-75
2022/09/27 03:06:31;;;;;;;5.25;0.40;;;9.00;99.90;;;;;;4962133;28;20077;-75
2022/09/27 03:08:56;;;;;;;8.82;0.50;;;9.10;99.90;;;;;;4964352;28;20109;-75
2022/09/27 03:11:22;;;;;;;2.15;0.50;;;9.10;99.90;;;;;;4963692;28;20106;-75
2022/09/27 03:13:47;;;;;;;6.80;0.40;;;9.10;99.90;;;;;;4964094;28;20042;-75
2022/09/27 03:16:14;;;;;;;4.18;0.65;;;9.10;99.90;;;;;;4964200;28;20036;-76
2022/09/27 03:18:40;;;;;;;5.10;0.40;;;9.20;99.90;;;;;;4968496;28;20122;-75
2022/09/27 03:21:06;;;;;;;15.15;0.70;;;9.20;99.90;;;;;;4967383;28;20142;-75
2022/09/27 03:23:32;;;;;;;3.50;0.35;;;9.20;99.90;;;;;;4967298;28;20034;-75
2022/09/27 03:25:57;;;;;;;2.55;0.40;;;9.20;99.90;;;;;;4966260;28;20450;-75
2022/09/27 03:28:24;;;;;;;11.38;0.50;;;9.20;99.90;;;;;;4969187;28;20045;-75
2022/09/27 03:30:50;;;;;;;4.22;0.30;;;9.20;99.90;;;;;;4968255;28;20038;-75
2022/09/27 03:33:15;;;;;;;4.00;0.40;;;9.20;99.90;;;;;;4968521;28;20471;-75
2022/09/27 03:35:42;;;;;;;6.05;0.35;;;9.10;99.90;;;;;;4966210;28;20054;-75
2022/09/27 03:38:08;;;;;;;4.80;0.45;;;9.10;99.90;;;;;;4966926;28;20034;-75
2022/09/27 03:40:33;;;;;;;3.20;0.73;;;9.00;99.90;;;;;;4967653;28;20573;-75
2022/09/27 03:42:59;;;;;;;5.97;0.50;;;9.00;99.90;;;;;;4967847;28;20023;-75
2022/09/27 03:45:24;;;;;;;10.23;0.60;;;9.00;99.90;;;;;;4965569;28;20039;-75
2022/09/27 03:47:50;;;;;;;9.75;0.57;;;9.00;99.90;;;;;;4965509;28;20038;-74
2022/09/27 03:50:16;;;;;;;3.70;0.55;;;9.00;99.90;;;;;;4964545;28;20037;-75
2022/09/27 03:52:42;;;;;;;7.55;0.40;;;9.00;99.90;;;;;;4969143;28;20026;-75
2022/09/27 03:55:09;;;;;;;8.80;0.88;;;9.00;99.90;;;;;;4964918;28;20105;-75
2022/09/27 03:57:34;;;;;;;3.33;0.35;;;9.00;99.90;;;;;;4968928;28;20105;-75
2022/09/27 04:00:00;;;;;;;8.57;0.95;;;9.00;99.90;;;;;;4965657;28;20117;-75
2022/09/27 04:02:27;;;;;;;4.13;0.30;;;9.00;99.90;;;;;;4966874;28;20074;-74
2022/09/27 04:04:53;;;;;;;6.68;0.50;;;9.00;99.90;;;;;;4968731;28;20034;-75
2022/09/27 04:07:18;;;;;;;3.97;0.30;;;9.00;99.90;;;;;;5034003;22;20057;-92
2022/09/27 04:09:45;;;;;;;3.35;0.32;;;9.00;99.90;;;;;;5039110;28;20026;-91
2022/09/27 04:12:12;;;;;;;4.05;0.40;;;9.10;99.90;;;;;;5052766;28;20028;-89
2022/09/27 04:14:38;;;;;;;6.47;0.45;;;9.10;99.90;;;;;;5043444;28;20032;-90
2022/09/27 04:17:03;;;;;;;5.72;0.50;;;9.10;99.90;;;;;;5042140;28;20029;-90
2022/09/27 04:19:29;;;;;;;6.43;1.13;;;9.10;99.90;;;;;;5039349;28;20068;-90
2022/09/27 04:21:55;;;;;;;7.60;0.82;;;9.20;99.90;;;;;;5040808;28;20017;-90
2022/09/27 04:24:20;;;;;;;5.00;0.30;;;9.20;99.90;;;;;;5047692;28;20075;-90
2022/09/27 04:26:48;;;;;;;6.60;0.52;;;9.20;99.90;;;;;;5041423;28;20397;-91
2022/09/27 04:29:13;;;;;;;3.15;0.40;;;9.20;99.90;;;;;;5041548;28;20021;-89
2022/09/27 04:31:39;;;;;;;4.13;0.35;;;9.20;99.90;;;;;;5042040;28;20032;-91
2022/09/27 04:34:04;;;;;;;5.32;0.30;;;9.20;99.90;;;;;;5039690;28;20047;-91
2022/09/27 04:36:30;;;;;;;5.90;0.35;;;9.20;99.90;;;;;;5042851;28;20033;-90
2022/09/27 04:38:59;;;;;;;6.78;0.20;;;9.20;99.90;;;;;;5038482;28;20037;-90
2022/09/27 04:41:26;;;;;;;2.10;0.20;;;9.20;99.90;;;;;;5052950;28;20580;-90
2022/09/27 04:43:55;;;;;;;3.47;0.25;;;9.20;99.90;;;;;;5043187;28;20029;-90
2022/09/27 04:46:21;;;;;;;1.58;0.20;;;9.10;99.90;;;;;;5038600;28;20163;-90
2022/09/27 04:48:47;;;;;;;1.60;0.15;;;9.10;99.90;;;;;;5042340;28;20120;-91
2022/09/27 04:51:16;;;;;;;2.05;0.10;;;9.10;99.90;;;;;;5042895;28;20021;-88
2022/09/27 04:53:42;;;;;;;3.83;0.25;;;9.00;99.90;;;;;;5042393;28;20049;-90
2022/09/27 04:56:08;;;;;;;2.45;0.20;;;9.00;99.90;;;;;;5037527;28;20604;-91
2022/09/27 04:58:34;;;;;;;3.05;0.17;;;9.00;99.90;;;;;;5039699;28;20136;-89
2022/09/27 05:01:01;;;;;;;3.22;0.60;;;8.90;99.90;;;;;;5037083;28;20033;-89
2022/09/27 05:03:27;;;;;;;3.15;0.20;;;8.90;99.90;;;;;;5039788;28;20112;-93
2022/09/27 05:05:53;;;;;;;1.35;0.20;;;8.90;99.90;;;;;;5039961;28;20124;-92
2022/09/27 05:08:19;;;;;;;4.55;0.30;;;8.90;99.90;;;;;;5044097;28;20040;-91
2022/09/27 05:10:46;;;;;;;6.03;0.30;;;8.90;99.90;;;;;;5044762;28;20025;-91
2022/09/27 05:13:12;;;;;;;4.53;0.30;;;8.90;99.90;;;;;;5040802;28;20401;-91
2022/09/27 05:15:38;;;;;;;2.95;0.30;;;9.00;99.90;;;;;;5046910;28;20025;-90
2022/09/27 05:18:06;;;;;;;1.80;0.30;;;9.00;99.90;;;;;;5043478;28;20036;-91
2022/09/27 05:20:33;;;;;;;4.07;0.30;;;9.00;99.90;;;;;;5039679;28;20036;-91
2022/09/27 05:22:59;;;;;;;6.25;0.60;;;9.10;99.90;;;;;;5044177;28;20034;-90
2022/09/27 05:25:24;;;;;;;3.03;0.50;;;9.10;99.90;;;;;;5045867;28;20374;-90
2022/09/27 05:27:50;;;;;;;4.70;0.40;;;9.10;99.90;;;;;;5049097;28;20043;-89
2022/09/27 05:30:16;;;;;;;6.03;0.43;;;9.10;99.90;;;;;;5055040;28;20393;-89
2022/09/27 05:32:43;;;;;;;6.07;0.45;;;9.10;99.90;;;;;;5051123;28;20086;-90
2022/09/27 05:35:09;;;;;;;2.58;0.30;;;9.10;99.90;;;;;;5059654;28;20484;-90
2022/09/27 05:37:34;;;;;;;1.25;0.30;;;9.00;99.90;;;;;;5045041;28;20038;-90
2022/09/27 05:40:00;;;;;;;2.50;0.22;;;9.10;99.90;;;;;;5035553;28;20049;-89
2022/09/27 05:42:26;;;;;;;2.42;0.28;;;9.00;99.90;;;;;;5046582;28;20424;-89
2022/09/27 05:44:52;;;;;;;1.00;0.28;;;9.00;99.90;;;;;;5046205;28;20033;-89
2022/09/27 05:47:17;;;;;;;2.88;0.20;;;9.00;99.90;;;;;;5055632;28;20397;-90
2022/09/27 05:49:43;;;;;;;2.95;0.20;;;8.90;99.90;;;;;;5054666;28;20052;-91
2022/09/27 05:52:09;;;;;;;3.35;0.20;;;8.90;99.90;;;;;;5051994;28;20036;-91
2022/09/27 05:54:34;;;;;;;4.18;0.68;;;8.90;99.90;;;;;;5048509;28;20037;-90
2022/09/27 05:57:00;;;;;;;3.13;0.15;;;8.90;99.90;;;;;;5035738;28;20025;-90
2022/09/27 05:59:26;;;;;;;5.68;0.45;;;9.00;99.90;;;;;;5045683;28;20036;-90
2022/09/27 06:01:53;;;;;;;1.40;0.20;;;8.90;99.90;;;;;;5042000;28;20048;-90
2022/09/27 06:04:19;;;;;;;2.38;0.10;;;8.90;99.90;;;;;;5046294;28;20075;-91
2022/09/27 06:06:45;;;;;;;1.17;0.10;;;9.00;99.90;;;;;;5035844;28;20061;-91
2022/09/27 06:09:13;;;;;;;2.42;0.13;;;9.00;99.90;;;;;;5049325;28;20024;-91
2022/09/27 06:11:39;;;;;;;4.32;0.20;;;8.90;99.90;;;;;;5050650;28;20026;-92
2022/09/27 06:14:04;;;;;;;1.85;0.28;;;9.00;99.90;;;;;;5050761;28;20045;-91
2022/09/27 06:16:30;;;;;;;1.02;0.10;;;9.10;99.90;;;;;;5055326;28;20029;-90
2022/09/27 06:18:56;;;;;;;1.30;0.20;;;9.10;99.90;;;;;;5051852;28;20080;-90
2022/09/27 06:21:23;;;;;;;2.70;0.30;;;9.10;99.90;;;;;;5045281;28;20033;-92
2022/09/27 06:23:48;;;;;;;2.72;0.20;;;9.20;99.90;;;;;;5046089;28;20116;-90
2022/09/27 06:26:15;;;;;;;3.72;0.28;;;9.20;99.90;;;;;;5050727;28;20386;-92
2022/09/27 06:28:41;;;;;;;1.52;0.20;;;9.20;99.90;;;;;;5052366;28;20037;-91
2022/09/27 06:31:07;;;;;;;2.35;0.25;;;9.20;99.90;;;;;;5045900;28;20044;-92
2022/09/27 06:33:34;;;;;;;1.95;0.20;;;9.20;99.90;;;;;;5052071;28;20456;-92
2022/09/27 06:36:01;;;;;;;2.33;0.28;;;9.30;99.90;;;;;;5053336;28;20029;-92
2022/09/27 06:38:27;;;;;;;3.75;0.30;;;9.30;99.90;;;;;;5050962;28;20485;-92
2022/09/27 06:40:52;;;;;;;2.22;0.30;;;9.30;99.90;;;;;;5054215;28;20029;-93
2022/09/27 06:43:19;;;;;;;2.67;0.15;;;9.40;99.90;;;;;;5036696;28;20117;-91
2022/09/27 06:45:46;;;;;;;1.80;0.20;;;9.40;99.90;;;;;;5034386;28;20477;-91
2022/09/27 06:48:13;;;;;;;5.75;0.30;;;9.50;99.90;;;;;;5054236;28;20055;-92
2022/09/27 06:50:41;;;;;;;4.57;0.20;;;9.60;99.90;;;;;;5051328;28;20053;-92
2022/09/27 06:53:09;;;;;;;3.10;0.38;;;9.60;99.90;;;;;;5053944;28;20017;-91
2022/09/27 06:55:35;;;;;;;1.33;0.20;;;9.70;99.90;;;;;;5046800;28;20116;-90
2022/09/27 07:00:48;;;;;;;2.53;0.30;;;9.90;99.90;;;;;;5048966;28;20444;-90
2022/09/27 07:03:15;;;;;;;1.88;0.20;;;10.00;99.90;;;;;;5051851;28;20025;-91
2022/09/27 07:05:41;;;;;;;2.22;0.20;;;10.20;99.90;;;;;;5049171;28;20041;-91
2022/09/27 07:08:10;;;;;;;1.58;0.25;;;10.30;99.90;;;;;;5053344;28;20116;-91
2022/09/27 07:10:38;;;;;;;4.32;0.40;;;10.30;99.90;;;;;;5050641;28;20036;-92
2022/09/27 07:13:06;;;;;;;1.83;0.25;;;10.40;99.90;;;;;;5043172;28;20107;-92
2022/09/27 07:15:35;;;;;;;2.53;0.30;;;10.30;99.90;;;;;;5048594;28;20022;-91
2022/09/27 07:18:02;;;;;;;3.45;0.63;;;10.30;99.90;;;;;;5034794;28;20148;-92
2022/09/27 07:20:28;;;;;;;3.83;0.20;;;10.30;99.90;;;;;;5048617;28;20071;-92
2022/09/27 07:22:54;;;;;;;1.98;0.40;;;10.30;99.90;;;;;;5052414;28;20550;-92
2022/09/27 07:25:20;;;;;;;4.65;0.30;;;10.20;99.90;;;;;;5044676;28;20071;-93
2022/09/27 07:27:45;;;;;;;3.20;0.30;;;10.20;99.90;;;;;;5047284;28;20203;-93
2022/09/27 07:30:11;;;;;;;2.38;0.30;;;10.10;99.90;;;;;;5051759;28;20366;-91
2022/09/27 07:32:37;;;;;;;1.95;0.30;;;10.10;99.90;;;;;;5053620;28;20025;-92
2022/09/27 07:35:05;;;;;;;2.72;0.32;;;10.10;99.90;;;;;;5040626;28;20123;-91
2022/09/27 07:37:35;;;;;;;3.20;0.30;;;10.00;99.90;;;;;;5049325;28;20083;-92
2022/09/27 07:40:02;;;;;;;2.67;0.47;;;10.00;99.90;;;;;;5050663;28;20029;-92
2022/09/27 07:42:28;;;;;;;2.50;0.22;;;10.10;99.90;;;;;;5052652;28;20474;-93
2022/09/27 07:44:57;;;;;;;4.97;0.25;;;10.10;99.90;;;;;;5051969;28;20053;-93
2022/09/27 07:47:23;;;;;;;2.75;0.30;;;10.20;99.90;;;;;;5051820;28;20075;-92
2022/09/27 07:49:51;;;;;;;2.40;0.20;;;10.20;99.90;;;;;;5044493;28;20104;-91
2022/09/27 07:52:17;;;;;;;4.55;0.30;;;10.20;99.90;;;;;;5048878;28;20379;-93
2022/09/27 07:54:43;;;;;;;2.13;0.28;;;10.20;99.90;;;;;;5049731;28;20099;-93
2022/09/27 07:57:09;;;;;;;2.00;0.20;;;10.20;99.90;;;;;;5047756;28;20481;-92
2022/09/27 07:59:35;;;;;;;2.42;0.30;;;10.20;99.90;;;;;;5050259;28;20120;-92
2022/09/27 08:02:00;;;;;;;1.77;0.20;;;10.20;99.90;;;;;;5051877;28;20117;-93
2022/09/27 08:04:26;;;;;;;5.03;0.50;;;10.10;99.90;;;;;;5051528;28;20028;-94
2022/09/27 08:06:51;;;;;;;3.78;0.30;;;10.10;99.90;;;;;;5051164;28;20059;-92
2022/09/27 08:09:17;;;;;;;3.53;0.40;;;10.10;99.90;;;;;;5052071;28;20032;-93
2022/09/27 08:11:43;;;;;;;2.08;0.38;;;10.10;99.90;;;;;;5036606;28;20022;-91
2022/09/27 08:14:09;;;;;;;3.90;0.60;;;10.10;99.90;;;;;;5046674;28;20061;-92
2022/09/27 08:16:35;;;;;;;3.03;0.40;;;10.10;99.90;;;;;;5039720;28;20017;-93
2022/09/27 08:19:01;;;;;;;1.50;0.40;;;10.10;99.90;;;;;;5033201;28;20072;-93
2022/09/27 08:21:26;;;;;;;1.65;0.50;;;10.20;99.90;;;;;;5055310;28;20029;-93
2022/09/27 08:23:52;;;;;;;3.30;0.50;;;10.20;99.90;;;;;;5046012;28;20094;-91
2022/09/27 08:26:18;;;;;;;3.47;0.50;;;10.20;99.90;;;;;;5039265;28;20021;-91
2022/09/27 08:28:46;;;;;;;2.78;0.68;;;10.20;99.90;;;;;;5051221;28;20028;-91
2022/09/27 08:31:12;;;;;;;2.17;0.55;;;10.20;99.90;;;;;;5042273;28;20120;-92
2022/09/27 08:33:38;;;;;;;2.97;1.02;;;10.30;99.90;;;;;;5045587;28;20055;-92
2022/09/27 08:36:09;;;;;;;3.72;0.75;;;10.30;99.90;;;;;;5046222;28;20036;-90
2022/09/27 08:38:34;;;;;;;3.42;0.70;;;10.40;99.90;;;;;;5048715;28;20036;-92
2022/09/27 08:41:37;;;;;;;3.33;0.65;;;10.40;99.90;;;;;;5054099;28;20051;-92
2022/09/27 08:44:44;;;;;;;3.15;1.02;;;10.50;99.90;;;;;;5057423;28;20037;-92
2022/09/27 08:47:35;;;;;;;2.70;1.10;;;10.50;99.90;;;;;;5028479;28;20029;-93
2022/09/27 08:50:33;;;;;;;3.35;1.17;;;10.50;99.90;;;;;;5057028;28;20052;-92
2022/09/27 08:53:45;;;;;;;5.75;2.00;;;10.50;99.90;;;;;;5049373;28;20079;-91
2022/09/27 08:56:13;;;;;;;9.82;2.97;;;10.60;99.90;;;;;;4975353;28;20030;-92
2022/09/27 08:58:44;;;;;;;8.45;2.90;;;10.50;99.90;;;;;;4989762;28;20035;-93
2022/09/27 09:01:15;;;;;;;6.13;2.80;;;10.60;99.90;;;;;;5022056;28;20033;-92
2022/09/27 09:03:54;;;;;;;4.13;2.85;;;10.60;99.90;;;;;;5047231;28;20029;-91
2022/09/27 09:06:47;;;;;;;5.40;3.28;;;10.70;99.90;;;;;;5036666;28;20057;-92
2022/09/27 09:09:42;;;;;;;4.45;3.17;;;10.60;99.90;;;;;;5050501;28;20055;-91
2022/09/27 09:15:13;;;;;;;8.18;3.67;;;10.60;99.90;;;;;;5041801;28;20036;-93
2022/09/27 09:18:03;;;;;;;6.47;3.03;;;10.70;99.90;;;;;;5042320;28;20017;-92
2022/09/27 09:20:48;;;;;;;7.07;3.28;;;10.60;99.90;;;;;;5039407;28;20037;-92
2022/09/27 09:23:53;;;;;;;4.40;2.95;;;10.60;99.90;;;;;;5039787;28;20098;-94
2022/09/27 09:26:41;;;;;;;6.93;3.10;;;10.60;99.90;;;;;;5050655;28;20026;-92
2022/09/27 09:29:31;;;;;;;5.18;2.95;;;10.60;99.90;;;;;;5043427;28;20037;-93
2022/09/27 09:32:14;;;;;;;4.10;2.88;;;10.70;99.90;;;;;;5037173;28;20396;-92
2022/09/27 09:34:45;;;;;;;6.65;2.55;;;10.70;99.90;;;;;;5050265;28;20025;-94
2022/09/27 09:37:23;;;;;;;4.45;2.60;;;10.80;99.90;;;;;;5042175;28;20139;-94
2022/09/27 09:40:28;;;;;;;3.58;2.28;;;10.80;99.90;;;;;;5047396;28;20075;-93
2022/09/27 09:43:04;;;;;;;5.65;2.28;;;10.80;99.90;;;;;;5041735;28;20075;-93
2022/09/27 09:45:35;;;;;;;4.63;1.23;;;10.80;99.90;;;;;;5036709;28;20031;-93
2022/09/27 09:48:06;;;;;;;3.67;1.60;;;10.80;99.90;;;;;;5049645;28;20018;-93
2022/09/27 09:50:45;;;;;;;3.17;1.80;;;10.80;99.90;;;;;;5043646;28;20060;-92
2022/09/27 09:53:19;;;;;;;5.78;2.40;;;10.70;99.90;;;;;;5042822;28;20037;-91
2022/09/27 09:56:02;;;;;;;5.93;1.95;;;10.70;99.90;;;;;;5042398;28;20040;-91
2022/09/27 09:58:38;;;;;;;;;;;10.80;99.90;;;;;;5046719;28;20036;-91
2022/09/27 10:01:22;;;;;;;3.42;1.55;;;10.70;99.90;;;;;;5047541;28;19916;-92
2022/09/27 10:03:47;;;;;;;4.07;1.60;;;10.80;99.90;;;;;;5044436;28;20033;-94
2022/09/27 10:06:15;;;;;;;3.70;1.50;;;10.80;99.90;;;;;;5047609;28;20053;-93
2022/09/27 10:08:41;;;;;;;4.35;1.30;;;10.80;99.90;;;;;;5037598;28;20026;-92
2022/09/27 10:11:19;;;;;;;5.35;1.65;;;10.90;99.90;;;;;;5042805;28;20029;-91
2022/09/27 10:13:44;;;;;;;2.80;1.60;;;10.90;99.90;;;;;;5041186;28;20025;-92
2022/09/27 10:16:13;;;;;;;3.92;1.25;;;10.90;99.90;;;;;;5041274;28;20107;-91
2022/09/27 10:18:40;;;;;;;3.85;0.98;;;10.90;99.90;;;;;;5041889;28;20043;-91
2022/09/27 10:21:21;;;;;;;2.85;0.80;;;10.90;99.90;;;;;;5048628;28;20029;-91
2022/09/27 10:24:07;;;;;;;4.88;1.33;;;11.00;99.90;;;;;;5051946;28;20056;-91
2022/09/27 10:26:34;;;;;;;4.85;0.70;;;11.00;99.90;;;;;;5047230;28;20083;-92
2022/09/27 10:29:15;;;;;;;4.07;0.90;;;11.00;99.90;;;;;;5053698;28;20022;-91
2022/09/27 10:31:46;;;;;;;2.65;0.65;;;11.00;99.90;;;;;;5042625;28;20025;-91
2022/09/27 10:34:39;;;;;;;4.25;0.57;;;11.00;99.90;;;;;;5040762;28;20051;-92
2022/09/27 10:37:11;;;;;;;3.90;0.80;;;11.10;99.90;;;;;;5040781;28;20025;-91
2022/09/27 10:39:40;;;;;;;5.28;0.85;;;11.20;99.90;;;;;;5042853;28;20090;-92
2022/09/27 10:42:36;;;;;;;2.92;0.70;;;11.20;99.90;;;;;;5042845;28;20033;-91
2022/09/27 10:45:27;;;;;;;5.32;1.10;;;11.30;99.90;;;;;;5039943;28;20044;-91
2022/09/27 10:47:53;;;;;;;5.60;1.08;;;11.40;99.90;;;;;;5042856;28;20078;-90
2022/09/27 10:50:25;;;;;;;2.63;0.70;;;11.40;99.90;;;;;;5044007;28;20025;-89
2022/09/27 10:53:13;;;;;;;2.63;0.85;;;11.30;99.90;;;;;;5045262;28;20048;-91
2022/09/27 10:55:41;;;;;;;5.28;0.90;;;11.40;99.90;;;;;;5046073;28;20509;-90
2022/09/27 10:58:14;;;;;;;5.35;0.70;;;11.40;99.90;;;;;;5048225;28;20072;-91
2022/09/27 11:00:40;;;;;;;1.88;0.40;;;11.50;99.90;;;;;;5047090;28;20045;-91
2022/09/27 11:03:13;;;;;;;4.40;0.60;;;11.50;99.90;;;;;;5058291;28;20040;-91
2022/09/27 11:05:39;;;;;;;3.28;0.70;;;11.60;99.90;;;;;;5044619;28;20024;-91
2022/09/27 11:08:17;;;;;;;2.28;0.60;;;11.60;99.90;;;;;;5042861;28;20170;-91
2022/09/27 11:10:43;;;;;;;3.15;0.70;;;11.70;99.90;;;;;;5042410;28;20035;-90
2022/09/27 11:13:19;;;;;;;1.88;0.50;;;11.60;99.90;;;;;;5043022;28;20025;-91
2022/09/27 11:16:07;;;;;;;3.03;0.57;;;11.70;99.90;;;;;;5048677;28;20742;-92
2022/09/27 11:18:54;;;;;;;1.77;0.40;;;11.70;99.90;;;;;;5045326;28;20029;-92
2022/09/27 11:21:26;;;;;;;1.90;0.40;;;11.70;99.90;;;;;;5043831;28;20031;-91
2022/09/27 11:24:11;;;;;;;2.58;0.40;;;11.70;99.90;;;;;;5040078;28;20060;-91
2022/09/27 11:27:14;;;;;;;1.75;0.35;;;11.60;99.90;;;;;;5042620;28;20029;-91
2022/09/27 11:29:44;;;;;;;1.95;0.30;;;11.70;99.90;;;;;;5043955;28;20059;-92
2022/09/27 11:32:29;;;;;;;3.30;0.40;;;11.70;99.90;;;;;;5052989;28;20150;-91
2022/09/27 11:35:31;;;;;;;2.83;0.40;;;11.70;99.90;;;;;;5042761;28;20495;-90
2022/09/27 11:38:08;;;;;;;1.92;0.22;;;11.80;99.90;;;;;;5053018;28;20401;-92
2022/09/27 11:40:49;;;;;;;2.58;0.20;;;11.70;99.90;;;;;;5053086;28;20029;-93
2022/09/27 11:43:37;;;;;;;1.92;0.20;;;11.60;99.90;;;;;;5046481;28;20450;-92
2022/09/27 11:46:32;;;;;;;1.10;0.20;;;11.50;99.90;;;;;;5046955;28;20029;-92
2022/09/27 11:49:18;;;;;;;2.33;0.30;;;11.40;99.90;;;;;;5051916;28;20039;-90
2022/09/27 11:52:21;;;;;;;0.75;0.20;;;11.30;99.90;;;;;;5042859;28;20053;-90
2022/09/27 11:55:01;;;;;;;2.67;0.20;;;11.20;99.90;;;;;;5044865;28;20037;-91
2022/09/27 11:57:46;;;;;;;0.70;0.10;;;11.10;99.90;;;;;;5047546;28;20033;-89
2022/09/27 12:00:20;;;;;;;1.27;0.10;;;11.00;99.90;;;;;;5054977;28;20090;-91
2022/09/27 12:03:13;;;;;;;2.42;0.10;;;10.90;99.90;;;;;;5048225;28;20118;-91
2022/09/27 12:06:06;;;;;;;1.17;0.10;;;10.80;99.90;;;;;;5036265;28;20169;-90
2022/09/27 12:08:57;;;;;;;1.95;0.10;;;10.80;99.90;;;;;;5044327;28;20037;-90
2022/09/27 12:11:34;;;;;;;2.25;0.00;;;10.70;99.90;;;;;;5047191;28;20611;-90
2022/09/27 12:14:21;;;;;;;1.08;0.05;;;10.70;99.90;;;;;;5038678;28;20026;-89
2022/09/27 12:16:50;;;;;;;1.30;0.28;;;10.80;99.90;;;;;;5044825;28;20547;-89
2022/09/27 12:19:44;;;;;;;2.60;0.20;;;10.70;99.90;;;;;;5045242;28;20170;-90
2022/09/27 12:22:14;;;;;;;1.17;0.30;;;10.70;99.90;;;;;;5035149;28;20034;-87
2022/09/27 12:24:41;;;;;;;1.08;0.10;;;10.70;99.90;;;;;;5043886;28;20033;-89
2022/09/27 12:27:13;;;;;;;3.13;0.20;;;10.70;99.90;;;;;;5045804;28;20033;-89
2022/09/27 12:29:40;;;;;;;1.30;0.52;;;10.80;99.90;;;;;;5041766;28;20030;-89
2022/09/27 12:32:32;;;;;;;0.98;0.10;;;10.70;99.90;;;;;;5045179;28;20028;-88
2022/09/27 12:35:05;;;;;;;1.23;0.00;;;10.80;99.90;;;;;;5044048;28;20111;-90
2022/09/27 12:37:41;;;;;;;1.10;0.10;;;10.70;99.90;;;;;;5043240;28;20059;-89
2022/09/27 12:40:16;;;;;;;2.38;0.05;;;10.70;99.90;;;;;;5037762;28;20524;-89
2022/09/27 12:42:53;;;;;;;0.88;0.00;;;10.70;99.90;;;;;;5046188;28;20030;-89
2022/09/27 12:45:57;;;;;;;0.50;0.00;;;10.60;99.90;;;;;;5049737;28;20068;-89
2022/09/27 12:48:43;;;;;;;0.80;0.00;;;10.60;99.90;;;;;;5049887;28;20032;-89
2022/09/27 12:51:15;;;;;;;0.13;0.00;;;10.50;99.90;;;;;;5041093;28;20116;-87
2022/09/27 12:54:11;;;;;;;0.75;0.00;;;10.50;99.90;;;;;;5048886;28;20032;-89
2022/09/27 12:57:03;;;;;;;1.20;0.00;;;10.50;99.90;;;;;;5046299;28;20017;-89
2022/09/27 12:59:40;;;;;;;1.42;0.00;;;10.60;99.90;;;;;;5040339;28;20041;-90
2022/09/27 13:02:43;;;;;;;0.10;0.00;;;10.50;99.90;;;;;;5050867;28;20025;-89
2022/09/27 13:05:44;;;;;;;0.93;0.00;;;10.60;99.90;;;;;;5043612;28;20025;-90
2022/09/27 13:08:21;;;;;;;0.52;0.10;;;10.60;99.90;;;;;;5046575;28;20033;-90
2022/09/27 13:10:54;;;;;;;0.68;0.00;;;10.70;99.90;;;;;;5041544;28;20029;-89
2022/09/27 13:13:25;;;;;;;0.45;0.00;;;10.80;99.90;;;;;;5047525;28;20031;-90
2022/09/27 13:15:57;;;;;;;1.75;0.00;;;10.80;99.90;;;;;;5043244;28;20482;-88
2022/09/27 13:18:28;;;;;;;2.17;0.00;;;10.90;99.90;;;;;;5046637;28;20029;-88
2022/09/27 13:20:54;;;;;;;0.30;0.00;;;10.90;99.90;;;;;;5037952;28;20112;-88
2022/09/27 13:23:20;;;;;;;3.40;0.00;;;11.00;99.90;;;;;;5045710;28;20363;-88
2022/09/27 13:26:02;;;;;;;0.10;0.00;;;11.10;99.90;;;;;;5045536;28;20032;-88
2022/09/27 13:28:31;;;;;;;1.70;0.20;;;11.10;99.90;;;;;;5041788;28;20029;-88
2022/09/27 13:30:59;;;;;;;1.15;0.00;;;11.20;99.90;;;;;;5045891;28;20381;-89